Airfield :
LOGIN :

Register | Disclaimer

   EN    FR    IT 

 










Legend :    VFR   Marginal VFR   IFR   Intensive IFR   Very Intensive IFR
Visi :
Ceiling :
>= 8 km
>= 3000ft
5 to 8 km
1000 to 3000 ft
1500m to 5 km
500 to 1000 ft
800 to 1500m
200 to 500 ft
< 800m
< 200 ft
Symbols :   Thunderstorms  Fog  Heavy snow  Heavy precipitations  Wind > 20 kt
SIGMETs :     Misc.  Thunderstorms  Icing  Turbulence  Mountain Waves  Volcanic Ashes







- Airport Elevation : 55 ft
- IATA code : DSA
- Download approach charts


EGCN - Robin Hood Doncaster Sheffield

CURRENT METAR :
  • 210320Z 09004KT 040V120 9999 -RA SCT006 BKN015 05/04 Q1007

EXPIRED METARs :
  • 210250Z 07006KT 040V110 9999 -RA SCT012 BKN020 05/04 Q1007
  • 210220Z 07007KT 9999 -RA SCT012 BKN020 05/04 Q1007
  • 210150Z 06006KT 030V090 9999 -RA SCT012 BKN020 04/04 Q1008
  • 210120Z 06006KT 9999 -RA SCT011 BKN019 04/04 Q1008
  • 210050Z 06008KT 020V100 9999 -RA FEW011 BKN017 04/04 Q1008

TAF AMD TAF EGCN
Valid from the 21 at 03:00 until the 22 at 00:00 UTC


210349Z 2103/2124 14010KT 9999 SCT010
TEMPO 2103/2108 7000 SHRA BKN010
PROB30
TEMPO 2103/2106 4000 +SHRA BKN008
BECMG 2119/2122 VRB02KT
PROB30 2119/2124 5000 BR
No reported NOTAMs for that airfield.
1 SIGMET reported for the London FIR (EGTT) :
 
Severe mountain waves
EGTT SIGMET 01 VALID 210100/210500 EGRR
EGTT LONDON FIR SEV MTW FCST WI N5500 W00200 - N5356 W00130 - N5345 W00530 - N5500 W00532 - N5500 W00530 - N5500 W00200 FL030/120 MOV N 05KT WKN=



MET'MAP, your aeronautical weather chart ! - Copyright ORBIFLY December 2007 - Disclaimer

ORBIFLY MET'MAP TEAM :

Programming & Development : Alexandra Zaïnal
Concept & Development : Baudouin d'Aumeries
Co-Development & Prog : Marc-Olivier Méhu
Technical & hardware support : Manuel Goepfert

Contact : metmap@orbifly.com




SOURCES & CREDITS :

   NOAA